sensor_id;sensor_type;location;lat;lon;timestamp;temperature;humidity
1812;DHT22;904;47.814;11.134;2022-10-30T00:00:38;12.80;85.60
1812;DHT22;904;47.814;11.134;2022-10-30T00:03:09;12.70;85.50
1812;DHT22;904;47.814;11.134;2022-10-30T00:05:39;12.70;85.80
1812;DHT22;904;47.814;11.134;2022-10-30T00:08:16;12.60;85.80
1812;DHT22;904;47.814;11.134;2022-10-30T00:10:45;12.60;86.40
1812;DHT22;904;47.814;11.134;2022-10-30T00:13:15;12.50;86.60
1812;DHT22;904;47.814;11.134;2022-10-30T00:15:46;12.50;86.70
1812;DHT22;904;47.814;11.134;2022-10-30T00:18:13;12.50;86.80
1812;DHT22;904;47.814;11.134;2022-10-30T00:20:41;12.40;86.90
1812;DHT22;904;47.814;11.134;2022-10-30T00:23:08;12.40;87.50
1812;DHT22;904;47.814;11.134;2022-10-30T00:25:35;12.40;87.60
1812;DHT22;904;47.814;11.134;2022-10-30T00:28:05;12.30;88.10
1812;DHT22;904;47.814;11.134;2022-10-30T00:30:39;12.40;87.20
1812;DHT22;904;47.814;11.134;2022-10-30T00:33:07;12.30;87.00
1812;DHT22;904;47.814;11.134;2022-10-30T00:35:34;12.30;87.00
1812;DHT22;904;47.814;11.134;2022-10-30T00:38:01;12.30;87.00
1812;DHT22;904;47.814;11.134;2022-10-30T00:40:28;12.30;87.00
1812;DHT22;904;47.814;11.134;2022-10-30T00:42:55;12.20;86.60
1812;DHT22;904;47.814;11.134;2022-10-30T00:45:24;12.20;86.50
1812;DHT22;904;47.814;11.134;2022-10-30T00:47:55;12.10;86.60
1812;DHT22;904;47.814;11.134;2022-10-30T00:50:25;12.10;86.70
1812;DHT22;904;47.814;11.134;2022-10-30T00:52:56;12.10;86.90
1812;DHT22;904;47.814;11.134;2022-10-30T00:55:27;12.00;86.70
1812;DHT22;904;47.814;11.134;2022-10-30T00:58:00;12.00;86.90
1812;DHT22;904;47.814;11.134;2022-10-30T01:00:32;12.00;87.20
1812;DHT22;904;47.814;11.134;2022-10-30T01:03:02;12.10;87.90
1812;DHT22;904;47.814;11.134;2022-10-30T01:05:31;12.10;87.70
1812;DHT22;904;47.814;11.134;2022-10-30T01:08:00;12.00;87.40
1812;DHT22;904;47.814;11.134;2022-10-30T01:10:27;12.00;87.00
1812;DHT22;904;47.814;11.134;2022-10-30T01:12:56;12.00;86.60
1812;DHT22;904;47.814;11.134;2022-10-30T01:15:31;11.90;86.40
1812;DHT22;904;47.814;11.134;2022-10-30T01:23:59;11.80;87.40
1812;DHT22;904;47.814;11.134;2022-10-30T01:26:40;11.70;88.10
1812;DHT22;904;47.814;11.134;2022-10-30T01:29:25;11.80;88.70
1812;DHT22;904;47.814;11.134;2022-10-30T01:32:09;11.70;89.20
1812;DHT22;904;47.814;11.134;2022-10-30T01:34:44;11.60;89.20
1812;DHT22;904;47.814;11.134;2022-10-30T01:37:27;11.60;89.40
1812;DHT22;904;47.814;11.134;2022-10-30T01:40:15;11.60;89.10
1812;DHT22;904;47.814;11.134;2022-10-30T01:42:49;11.60;88.90
1812;DHT22;904;47.814;11.134;2022-10-30T01:45:21;11.60;88.40
1812;DHT22;904;47.814;11.134;2022-10-30T01:48:13;11.60;88.30
1812;DHT22;904;47.814;11.134;2022-10-30T01:50:48;11.50;88.30
1812;DHT22;904;47.814;11.134;2022-10-30T01:53:31;11.50;88.30
1812;DHT22;904;47.814;11.134;2022-10-30T01:56:11;11.60;88.20
1812;DHT22;904;47.814;11.134;2022-10-30T01:58:49;11.60;88.30
1812;DHT22;904;47.814;11.134;2022-10-30T02:01:18;11.60;87.60
1812;DHT22;904;47.814;11.134;2022-10-30T02:03:47;11.60;87.50
1812;DHT22;904;47.814;11.134;2022-10-30T02:06:24;11.60;88.30
1812;DHT22;904;47.814;11.134;2022-10-30T02:08:54;11.60;88.60
1812;DHT22;904;47.814;11.134;2022-10-30T02:11:22;11.60;88.30
1812;DHT22;904;47.814;11.134;2022-10-30T02:13:51;11.60;88.20
1812;DHT22;904;47.814;11.134;2022-10-30T02:16:19;11.50;87.80
1812;DHT22;904;47.814;11.134;2022-10-30T02:18:48;11.50;87.50
1812;DHT22;904;47.814;11.134;2022-10-30T02:21:20;11.40;88.10
1812;DHT22;904;47.814;11.134;2022-10-30T02:23:48;11.40;88.40
1812;DHT22;904;47.814;11.134;2022-10-30T02:26:15;11.40;88.40
1812;DHT22;904;47.814;11.134;2022-10-30T02:28:42;11.30;88.30
1812;DHT22;904;47.814;11.134;2022-10-30T02:31:10;11.30;88.70
1812;DHT22;904;47.814;11.134;2022-10-30T02:33:37;11.20;87.30
1812;DHT22;904;47.814;11.134;2022-10-30T02:36:05;11.20;86.70
1812;DHT22;904;47.814;11.134;2022-10-30T02:38:35;11.10;86.80
1812;DHT22;904;47.814;11.134;2022-10-30T02:41:03;11.10;86.90
1812;DHT22;904;47.814;11.134;2022-10-30T02:43:30;11.10;87.80
1812;DHT22;904;47.814;11.134;2022-10-30T02:45:57;11.00;88.20
1812;DHT22;904;47.814;11.134;2022-10-30T02:48:24;11.00;88.40
1812;DHT22;904;47.814;11.134;2022-10-30T02:50:52;11.00;88.40
1812;DHT22;904;47.814;11.134;2022-10-30T02:53:19;10.90;88.50
1812;DHT22;904;47.814;11.134;2022-10-30T02:55:48;10.90;88.90
1812;DHT22;904;47.814;11.134;2022-10-30T02:58:15;10.80;88.90
1812;DHT22;904;47.814;11.134;2022-10-30T03:00:42;10.80;88.80
1812;DHT22;904;47.814;11.134;2022-10-30T03:03:11;10.80;89.60
1812;DHT22;904;47.814;11.134;2022-10-30T03:05:39;10.80;90.10
1812;DHT22;904;47.814;11.134;2022-10-30T03:08:17;10.80;90.30
1812;DHT22;904;47.814;11.134;2022-10-30T03:10:44;10.80;90.60
1812;DHT22;904;47.814;11.134;2022-10-30T03:13:13;10.80;90.80
1812;DHT22;904;47.814;11.134;2022-10-30T03:15:40;10.80;90.60
1812;DHT22;904;47.814;11.134;2022-10-30T03:18:07;10.80;90.60
1812;DHT22;904;47.814;11.134;2022-10-30T03:20:37;10.80;90.70
1812;DHT22;904;47.814;11.134;2022-10-30T03:23:04;10.90;90.70
1812;DHT22;904;47.814;11.134;2022-10-30T03:25:31;10.90;90.40
1812;DHT22;904;47.814;11.134;2022-10-30T03:27:58;10.80;90.00
1812;DHT22;904;47.814;11.134;2022-10-30T03:30:27;10.70;90.60
1812;DHT22;904;47.814;11.134;2022-10-30T03:32:54;10.60;91.10
1812;DHT22;904;47.814;11.134;2022-10-30T03:35:21;10.60;91.40
1812;DHT22;904;47.814;11.134;2022-10-30T03:37:49;10.60;91.40
1812;DHT22;904;47.814;11.134;2022-10-30T03:40:16;10.60;91.80
1812;DHT22;904;47.814;11.134;2022-10-30T03:42:43;10.60;92.20
1812;DHT22;904;47.814;11.134;2022-10-30T03:45:11;10.50;92.40
1812;DHT22;904;47.814;11.134;2022-10-30T03:47:40;10.50;92.30
1812;DHT22;904;47.814;11.134;2022-10-30T03:50:08;10.60;91.90
1812;DHT22;904;47.814;11.134;2022-10-30T03:52:36;10.50;91.50
1812;DHT22;904;47.814;11.134;2022-10-30T03:55:07;10.50;91.60
1812;DHT22;904;47.814;11.134;2022-10-30T03:57:36;10.40;92.00
1812;DHT22;904;47.814;11.134;2022-10-30T04:00:04;10.40;92.60
1812;DHT22;904;47.814;11.134;2022-10-30T04:02:32;10.40;92.80
1812;DHT22;904;47.814;11.134;2022-10-30T04:05:01;10.40;92.70
1812;DHT22;904;47.814;11.134;2022-10-30T04:07:28;10.40;92.80
1812;DHT22;904;47.814;11.134;2022-10-30T04:09:56;10.50;92.90
1812;DHT22;904;47.814;11.134;2022-10-30T04:12:23;10.50;93.00
1812;DHT22;904;47.814;11.134;2022-10-30T04:14:50;10.50;92.90
1812;DHT22;904;47.814;11.134;2022-10-30T04:17:20;10.50;93.30
1812;DHT22;904;47.814;11.134;2022-10-30T04:19:47;10.40;93.40
1812;DHT22;904;47.814;11.134;2022-10-30T04:22:16;10.40;93.30
1812;DHT22;904;47.814;11.134;2022-10-30T04:24:44;10.40;93.30
1812;DHT22;904;47.814;11.134;2022-10-30T04:27:14;10.40;93.20
1812;DHT22;904;47.814;11.134;2022-10-30T04:29:41;10.40;92.60
1812;DHT22;904;47.814;11.134;2022-10-30T04:32:08;10.50;92.20
1812;DHT22;904;47.814;11.134;2022-10-30T04:34:36;10.50;92.20
1812;DHT22;904;47.814;11.134;2022-10-30T04:37:04;10.50;92.00
1812;DHT22;904;47.814;11.134;2022-10-30T04:39:33;10.50;91.90
1812;DHT22;904;47.814;11.134;2022-10-30T04:42:00;10.60;92.00
1812;DHT22;904;47.814;11.134;2022-10-30T04:44:28;10.60;91.70
1812;DHT22;904;47.814;11.134;2022-10-30T04:46:55;10.60;91.60
1812;DHT22;904;47.814;11.134;2022-10-30T04:49:24;10.60;91.40
1812;DHT22;904;47.814;11.134;2022-10-30T04:51:52;10.60;91.60
1812;DHT22;904;47.814;11.134;2022-10-30T04:54:19;10.60;91.50
1812;DHT22;904;47.814;11.134;2022-10-30T04:56:48;10.60;91.50
1812;DHT22;904;47.814;11.134;2022-10-30T04:59:16;10.60;91.50
1812;DHT22;904;47.814;11.134;2022-10-30T05:01:43;10.60;91.40
1812;DHT22;904;47.814;11.134;2022-10-30T05:04:10;10.60;91.10
1812;DHT22;904;47.814;11.134;2022-10-30T05:06:38;10.50;90.90
1812;DHT22;904;47.814;11.134;2022-10-30T05:09:05;10.50;90.60
1812;DHT22;904;47.814;11.134;2022-10-30T05:11:33;10.40;90.30
1812;DHT22;904;47.814;11.134;2022-10-30T05:14:02;10.30;90.30
1812;DHT22;904;47.814;11.134;2022-10-30T05:16:30;10.20;90.00
1812;DHT22;904;47.814;11.134;2022-10-30T05:18:58;10.10;89.80
1812;DHT22;904;47.814;11.134;2022-10-30T05:21:25;10.00;90.00
1812;DHT22;904;47.814;11.134;2022-10-30T05:23:53;9.90;90.70
1812;DHT22;904;47.814;11.134;2022-10-30T05:26:20;9.90;90.90
1812;DHT22;904;47.814;11.134;2022-10-30T05:28:48;9.90;91.20
1812;DHT22;904;47.814;11.134;2022-10-30T05:31:17;9.90;91.20
1812;DHT22;904;47.814;11.134;2022-10-30T05:33:45;9.80;92.30
1812;DHT22;904;47.814;11.134;2022-10-30T05:36:12;9.80;92.50
1812;DHT22;904;47.814;11.134;2022-10-30T05:38:41;9.70;92.90
1812;DHT22;904;47.814;11.134;2022-10-30T05:41:09;9.70;93.30
1812;DHT22;904;47.814;11.134;2022-10-30T05:43:37;9.70;93.50
1812;DHT22;904;47.814;11.134;2022-10-30T05:46:04;9.80;93.40
1812;DHT22;904;47.814;11.134;2022-10-30T05:48:36;9.90;93.30
1812;DHT22;904;47.814;11.134;2022-10-30T05:51:04;9.90;93.40
1812;DHT22;904;47.814;11.134;2022-10-30T05:53:33;9.80;93.20
1812;DHT22;904;47.814;11.134;2022-10-30T05:56:00;9.80;93.30
1812;DHT22;904;47.814;11.134;2022-10-30T05:58:29;9.80;93.20
1812;DHT22;904;47.814;11.134;2022-10-30T06:00:57;9.80;93.10
1812;DHT22;904;47.814;11.134;2022-10-30T06:03:24;9.80;93.10
1812;DHT22;904;47.814;11.134;2022-10-30T06:05:53;9.90;93.30
1812;DHT22;904;47.814;11.134;2022-10-30T06:08:21;9.90;93.50
1812;DHT22;904;47.814;11.134;2022-10-30T06:10:49;10.00;93.00
1812;DHT22;904;47.814;11.134;2022-10-30T06:13:18;10.10;93.00
1812;DHT22;904;47.814;11.134;2022-10-30T06:15:45;10.20;92.50
1812;DHT22;904;47.814;11.134;2022-10-30T06:18:13;10.20;92.60
1812;DHT22;904;47.814;11.134;2022-10-30T06:20:43;10.30;92.70
1812;DHT22;904;47.814;11.134;2022-10-30T06:23:12;10.50;92.80
1812;DHT22;904;47.814;11.134;2022-10-30T06:25:39;10.60;92.70
1812;DHT22;904;47.814;11.134;2022-10-30T06:28:08;10.70;92.60
1812;DHT22;904;47.814;11.134;2022-10-30T06:30:35;10.80;91.90
1812;DHT22;904;47.814;11.134;2022-10-30T06:33:04;10.90;91.10
1812;DHT22;904;47.814;11.134;2022-10-30T06:35:31;11.00;90.80
1812;DHT22;904;47.814;11.134;2022-10-30T06:37:59;11.10;90.90
1812;DHT22;904;47.814;11.134;2022-10-30T06:40:28;11.20;90.60
1812;DHT22;904;47.814;11.134;2022-10-30T06:42:56;11.40;90.30
1812;DHT22;904;47.814;11.134;2022-10-30T06:45:28;11.60;89.40
1812;DHT22;904;47.814;11.134;2022-10-30T06:47:55;11.80;89.80
1812;DHT22;904;47.814;11.134;2022-10-30T06:50:22;11.90;87.70
1812;DHT22;904;47.814;11.134;2022-10-30T06:52:50;12.00;86.00
1812;DHT22;904;47.814;11.134;2022-10-30T06:55:22;12.00;85.20
1812;DHT22;904;47.814;11.134;2022-10-30T06:57:54;11.90;85.30
1812;DHT22;904;47.814;11.134;2022-10-30T07:00:28;12.00;85.00
1812;DHT22;904;47.814;11.134;2022-10-30T07:02:57;12.20;85.50
1812;DHT22;904;47.814;11.134;2022-10-30T07:05:25;12.40;86.90
1812;DHT22;904;47.814;11.134;2022-10-30T07:07:55;12.60;86.60
1812;DHT22;904;47.814;11.134;2022-10-30T07:10:23;13.00;86.10
1812;DHT22;904;47.814;11.134;2022-10-30T07:12:51;13.30;85.10
1812;DHT22;904;47.814;11.134;2022-10-30T07:15:20;13.70;83.70
1812;DHT22;904;47.814;11.134;2022-10-30T07:17:54;14.00;81.80
1812;DHT22;904;47.814;11.134;2022-10-30T07:20:25;14.40;80.40
1812;DHT22;904;47.814;11.134;2022-10-30T07:22:53;14.70;79.50
1812;DHT22;904;47.814;11.134;2022-10-30T07:25:21;15.00;77.30
1812;DHT22;904;47.814;11.134;2022-10-30T07:27:50;15.20;76.80
1812;DHT22;904;47.814;11.134;2022-10-30T07:30:20;15.50;76.10
1812;DHT22;904;47.814;11.134;2022-10-30T07:32:56;16.10;74.30
1812;DHT22;904;47.814;11.134;2022-10-30T07:35:24;16.60;72.40
1812;DHT22;904;47.814;11.134;2022-10-30T07:37:51;17.00;71.40
1812;DHT22;904;47.814;11.134;2022-10-30T07:40:19;17.60;69.80
1812;DHT22;904;47.814;11.134;2022-10-30T07:42:47;18.10;66.00
1812;DHT22;904;47.814;11.134;2022-10-30T07:45:14;18.50;64.90
1812;DHT22;904;47.814;11.134;2022-10-30T07:47:43;18.90;63.90
1812;DHT22;904;47.814;11.134;2022-10-30T07:50:10;19.40;60.70
1812;DHT22;904;47.814;11.134;2022-10-30T07:52:38;19.80;59.20
1812;DHT22;904;47.814;11.134;2022-10-30T07:55:06;20.00;58.50
1812;DHT22;904;47.814;11.134;2022-10-30T07:57:37;20.40;56.70
1812;DHT22;904;47.814;11.134;2022-10-30T08:00:06;21.00;55.10
1812;DHT22;904;47.814;11.134;2022-10-30T08:02:33;21.50;52.80
1812;DHT22;904;47.814;11.134;2022-10-30T08:05:03;21.60;49.90
1812;DHT22;904;47.814;11.134;2022-10-30T08:07:34;21.60;49.80
1812;DHT22;904;47.814;11.134;2022-10-30T08:10:01;22.10;51.20
1812;DHT22;904;47.814;11.134;2022-10-30T08:12:31;22.60;49.20
1812;DHT22;904;47.814;11.134;2022-10-30T08:14:58;23.10;47.20
1812;DHT22;904;47.814;11.134;2022-10-30T08:17:26;23.40;45.70
1812;DHT22;904;47.814;11.134;2022-10-30T08:19:53;23.80;45.70
1812;DHT22;904;47.814;11.134;2022-10-30T08:22:24;24.80;44.90
1812;DHT22;904;47.814;11.134;2022-10-30T08:24:51;25.70;43.60
1812;DHT22;904;47.814;11.134;2022-10-30T08:27:18;26.50;41.50
1812;DHT22;904;47.814;11.134;2022-10-30T08:29:45;27.10;39.70
1812;DHT22;904;47.814;11.134;2022-10-30T08:32:13;27.60;38.50
1812;DHT22;904;47.814;11.134;2022-10-30T08:34:40;28.20;37.90
1812;DHT22;904;47.814;11.134;2022-10-30T08:37:08;28.70;36.30
1812;DHT22;904;47.814;11.134;2022-10-30T08:39:38;29.40;36.00
1812;DHT22;904;47.814;11.134;2022-10-30T08:42:05;30.10;34.20
1812;DHT22;904;47.814;11.134;2022-10-30T08:44:32;30.70;32.90
1812;DHT22;904;47.814;11.134;2022-10-30T08:47:00;31.60;31.80
1812;DHT22;904;47.814;11.134;2022-10-30T08:49:27;32.60;29.70
1812;DHT22;904;47.814;11.134;2022-10-30T08:51:55;33.50;28.20
1812;DHT22;904;47.814;11.134;2022-10-30T08:54:22;34.10;27.70
1812;DHT22;904;47.814;11.134;2022-10-30T08:56:51;34.80;26.70
1812;DHT22;904;47.814;11.134;2022-10-30T08:59:19;35.60;25.40
1812;DHT22;904;47.814;11.134;2022-10-30T09:01:46;36.30;24.70
1812;DHT22;904;47.814;11.134;2022-10-30T09:04:15;36.60;23.40
1812;DHT22;904;47.814;11.134;2022-10-30T09:06:45;36.50;23.80
1812;DHT22;904;47.814;11.134;2022-10-30T09:09:12;36.90;23.30
1812;DHT22;904;47.814;11.134;2022-10-30T09:11:40;37.40;23.90
1812;DHT22;904;47.814;11.134;2022-10-30T09:14:09;38.20;23.40
1812;DHT22;904;47.814;11.134;2022-10-30T09:16:37;39.10;22.30
1812;DHT22;904;47.814;11.134;2022-10-30T09:19:04;39.80;21.90
1812;DHT22;904;47.814;11.134;2022-10-30T09:21:32;40.40;21.20
1812;DHT22;904;47.814;11.134;2022-10-30T09:23:59;40.80;20.00
1812;DHT22;904;47.814;11.134;2022-10-30T09:26:26;41.40;19.20
1812;DHT22;904;47.814;11.134;2022-10-30T09:28:55;41.90;18.50
1812;DHT22;904;47.814;11.134;2022-10-30T09:31:23;42.10;17.10
1812;DHT22;904;47.814;11.134;2022-10-30T09:33:50;42.20;17.40
1812;DHT22;904;47.814;11.134;2022-10-30T09:36:18;42.20;17.80
1812;DHT22;904;47.814;11.134;2022-10-30T09:38:45;42.50;17.50
1812;DHT22;904;47.814;11.134;2022-10-30T09:41:29;42.60;16.10
1812;DHT22;904;47.814;11.134;2022-10-30T09:44:09;42.70;16.60
1812;DHT22;904;47.814;11.134;2022-10-30T09:46:53;43.90;16.60
1812;DHT22;904;47.814;11.134;2022-10-30T09:49:51;44.80;17.50
1812;DHT22;904;47.814;11.134;2022-10-30T09:52:27;45.60;16.80
1812;DHT22;904;47.814;11.134;2022-10-30T09:55:21;46.40;16.40
1812;DHT22;904;47.814;11.134;2022-10-30T09:57:56;47.10;16.00
1812;DHT22;904;47.814;11.134;2022-10-30T10:00:31;47.40;15.30
1812;DHT22;904;47.814;11.134;2022-10-30T10:03:12;47.50;15.20
1812;DHT22;904;47.814;11.134;2022-10-30T10:05:45;47.80;15.30
1812;DHT22;904;47.814;11.134;2022-10-30T10:08:17;47.60;15.00
1812;DHT22;904;47.814;11.134;2022-10-30T10:10:47;46.40;14.70
1812;DHT22;904;47.814;11.134;2022-10-30T10:13:26;46.20;15.70
1812;DHT22;904;47.814;11.134;2022-10-30T10:15:58;46.10;15.60
1812;DHT22;904;47.814;11.134;2022-10-30T10:18:34;46.80;15.60
1812;DHT22;904;47.814;11.134;2022-10-30T10:21:11;47.80;15.60
1812;DHT22;904;47.814;11.134;2022-10-30T10:23:46;48.40;14.60
1812;DHT22;904;47.814;11.134;2022-10-30T10:26:28;48.20;13.60
1812;DHT22;904;47.814;11.134;2022-10-30T10:29:15;46.60;14.30
1812;DHT22;904;47.814;11.134;2022-10-30T10:31:57;46.00;15.00
1812;DHT22;904;47.814;11.134;2022-10-30T10:34:42;45.40;15.50
1812;DHT22;904;47.814;11.134;2022-10-30T10:37:19;45.40;15.80
1812;DHT22;904;47.814;11.134;2022-10-30T10:40:05;46.30;15.20
1812;DHT22;904;47.814;11.134;2022-10-30T10:42:46;47.50;14.70
1812;DHT22;904;47.814;11.134;2022-10-30T10:45:26;47.70;14.00
1812;DHT22;904;47.814;11.134;2022-10-30T10:48:19;46.50;13.60
1812;DHT22;904;47.814;11.134;2022-10-30T10:50:56;45.60;13.60
1812;DHT22;904;47.814;11.134;2022-10-30T10:53:28;45.00;14.70
1812;DHT22;904;47.814;11.134;2022-10-30T10:55:58;45.80;13.00
1812;DHT22;904;47.814;11.134;2022-10-30T10:58:31;46.70;13.40
1812;DHT22;904;47.814;11.134;2022-10-30T11:01:01;47.30;13.20
1812;DHT22;904;47.814;11.134;2022-10-30T11:03:48;48.10;13.20
1812;DHT22;904;47.814;11.134;2022-10-30T11:06:23;48.60;13.30
1812;DHT22;904;47.814;11.134;2022-10-30T11:08:55;48.30;12.40
1812;DHT22;904;47.814;11.134;2022-10-30T11:11:32;48.30;12.40
1812;DHT22;904;47.814;11.134;2022-10-30T11:14:07;48.80;11.50
1812;DHT22;904;47.814;11.134;2022-10-30T11:16:50;49.50;12.10
1812;DHT22;904;47.814;11.134;2022-10-30T11:19:20;50.10;11.20
1812;DHT22;904;47.814;11.134;2022-10-30T11:21:55;50.80;11.70
1812;DHT22;904;47.814;11.134;2022-10-30T11:24:29;51.40;10.50
1812;DHT22;904;47.814;11.134;2022-10-30T11:26:58;51.60;10.00
1812;DHT22;904;47.814;11.134;2022-10-30T11:29:34;52.00;9.50
1812;DHT22;904;47.814;11.134;2022-10-30T11:32:03;52.30;9.50
1812;DHT22;904;47.814;11.134;2022-10-30T11:34:33;52.40;9.40
1812;DHT22;904;47.814;11.134;2022-10-30T11:37:03;52.50;9.50
1812;DHT22;904;47.814;11.134;2022-10-30T11:39:32;52.30;9.10
1812;DHT22;904;47.814;11.134;2022-10-30T11:42:04;52.20;8.70
1812;DHT22;904;47.814;11.134;2022-10-30T11:44:35;51.90;8.60
1812;DHT22;904;47.814;11.134;2022-10-30T11:47:04;51.30;9.20
1812;DHT22;904;47.814;11.134;2022-10-30T11:49:40;50.90;9.80
1812;DHT22;904;47.814;11.134;2022-10-30T11:52:19;50.60;10.30
1812;DHT22;904;47.814;11.134;2022-10-30T11:54:51;49.90;10.60
1812;DHT22;904;47.814;11.134;2022-10-30T11:57:23;49.30;11.20
1812;DHT22;904;47.814;11.134;2022-10-30T11:59:54;49.40;11.20
1812;DHT22;904;47.814;11.134;2022-10-30T12:02:25;50.00;10.60
1812;DHT22;904;47.814;11.134;2022-10-30T12:04:55;50.60;11.10
1812;DHT22;904;47.814;11.134;2022-10-30T12:07:36;50.30;10.40
1812;DHT22;904;47.814;11.134;2022-10-30T12:10:07;49.40;10.70
1812;DHT22;904;47.814;11.134;2022-10-30T12:12:51;49.30;11.00
1812;DHT22;904;47.814;11.134;2022-10-30T12:15:20;49.30;10.50
1812;DHT22;904;47.814;11.134;2022-10-30T12:17:51;49.50;9.90
1812;DHT22;904;47.814;11.134;2022-10-30T12:20:19;49.80;9.90
1812;DHT22;904;47.814;11.134;2022-10-30T12:22:48;49.80;10.50
1812;DHT22;904;47.814;11.134;2022-10-30T12:25:23;49.70;9.50
1812;DHT22;904;47.814;11.134;2022-10-30T12:27:57;49.40;10.20
1812;DHT22;904;47.814;11.134;2022-10-30T12:30:25;49.40;10.30
1812;DHT22;904;47.814;11.134;2022-10-30T12:32:59;49.50;9.90
1812;DHT22;904;47.814;11.134;2022-10-30T12:35:39;48.80;9.70
1812;DHT22;904;47.814;11.134;2022-10-30T12:38:16;48.60;10.00
1812;DHT22;904;47.814;11.134;2022-10-30T12:40:55;48.50;9.60
1812;DHT22;904;47.814;11.134;2022-10-30T12:43:26;48.10;9.90
1812;DHT22;904;47.814;11.134;2022-10-30T12:46:00;47.80;11.00
1812;DHT22;904;47.814;11.134;2022-10-30T12:48:34;47.80;10.30
1812;DHT22;904;47.814;11.134;2022-10-30T12:51:13;47.40;10.70
1812;DHT22;904;47.814;11.134;2022-10-30T12:53:47;47.30;10.80
1812;DHT22;904;47.814;11.134;2022-10-30T12:56:23;47.10;11.00
1812;DHT22;904;47.814;11.134;2022-10-30T12:58:59;46.80;10.70
1812;DHT22;904;47.814;11.134;2022-10-30T13:01:34;46.70;10.90
1812;DHT22;904;47.814;11.134;2022-10-30T13:04:07;46.50;11.30
1812;DHT22;904;47.814;11.134;2022-10-30T13:06:43;46.40;10.90
1812;DHT22;904;47.814;11.134;2022-10-30T13:09:19;46.20;10.80
1812;DHT22;904;47.814;11.134;2022-10-30T13:11:51;45.80;11.40
1812;DHT22;904;47.814;11.134;2022-10-30T13:14:23;45.40;11.90
1812;DHT22;904;47.814;11.134;2022-10-30T13:16:52;44.70;12.00
1812;DHT22;904;47.814;11.134;2022-10-30T13:19:20;43.00;12.70
1812;DHT22;904;47.814;11.134;2022-10-30T13:21:54;41.10;14.00
1812;DHT22;904;47.814;11.134;2022-10-30T13:24:41;39.30;15.70
1812;DHT22;904;47.814;11.134;2022-10-30T13:27:14;37.90;16.20
1812;DHT22;904;47.814;11.134;2022-10-30T13:29:47;36.80;17.40
1812;DHT22;904;47.814;11.134;2022-10-30T13:32:31;35.80;
1812;DHT22;904;47.814;11.134;2022-10-30T13:35:12;34.90;19.10
1812;DHT22;904;47.814;11.134;2022-10-30T13:37:48;34.00;20.30
1812;DHT22;904;47.814;11.134;2022-10-30T13:40:23;33.10;22.40
1812;DHT22;904;47.814;11.134;2022-10-30T13:43:07;32.30;22.30
1812;DHT22;904;47.814;11.134;2022-10-30T13:45:54;31.60;23.70
1812;DHT22;904;47.814;11.134;2022-10-30T13:48:35;31.00;25.10
1812;DHT22;904;47.814;11.134;2022-10-30T13:51:27;30.50;25.80
1812;DHT22;904;47.814;11.134;2022-10-30T13:54:07;30.10;26.00
1812;DHT22;904;47.814;11.134;2022-10-30T13:56:37;29.70;26.60
1812;DHT22;904;47.814;11.134;2022-10-30T13:59:13;29.30;27.60
1812;DHT22;904;47.814;11.134;2022-10-30T14:01:49;29.10;28.40
1812;DHT22;904;47.814;11.134;2022-10-30T14:04:23;28.90;28.90
1812;DHT22;904;47.814;11.134;2022-10-30T14:07:09;28.70;29.30
1812;DHT22;904;47.814;11.134;2022-10-30T14:09:49;28.50;29.60
1812;DHT22;904;47.814;11.134;2022-10-30T14:12:46;28.20;29.70
1812;DHT22;904;47.814;11.134;2022-10-30T14:15:24;28.00;30.30
1812;DHT22;904;47.814;11.134;2022-10-30T14:18:26;27.70;30.50
1812;DHT22;904;47.814;11.134;2022-10-30T14:20:55;27.50;31.40
1812;DHT22;904;47.814;11.134;2022-10-30T14:23:26;27.20;32.20
1812;DHT22;904;47.814;11.134;2022-10-30T14:26:14;27.10;32.20
1812;DHT22;904;47.814;11.134;2022-10-30T14:28:51;26.90;33.30
1812;DHT22;904;47.814;11.134;2022-10-30T14:31:35;26.70;34.00
1812;DHT22;904;47.814;11.134;2022-10-30T14:34:24;26.60;34.10
1812;DHT22;904;47.814;11.134;2022-10-30T14:36:52;26.40;34.70
1812;DHT22;904;47.814;11.134;2022-10-30T14:39:28;26.30;34.60
1812;DHT22;904;47.814;11.134;2022-10-30T14:42:12;26.20;35.00
1812;DHT22;904;47.814;11.134;2022-10-30T14:44:58;26.20;34.90
1812;DHT22;904;47.814;11.134;2022-10-30T14:47:45;26.10;35.00
1812;DHT22;904;47.814;11.134;2022-10-30T14:50:19;25.90;35.60
1812;DHT22;904;47.814;11.134;2022-10-30T14:56:02;25.80;35.50
1812;DHT22;904;47.814;11.134;2022-10-30T14:58:34;25.60;36.10
1812;DHT22;904;47.814;11.134;2022-10-30T15:01:23;25.50;36.00
1812;DHT22;904;47.814;11.134;2022-10-30T15:04:13;25.40;36.40
1812;DHT22;904;47.814;11.134;2022-10-30T15:06:53;25.30;36.90
1812;DHT22;904;47.814;11.134;2022-10-30T15:09:30;25.30;37.10
1812;DHT22;904;47.814;11.134;2022-10-30T15:12:17;25.20;38.20
1812;DHT22;904;47.814;11.134;2022-10-30T15:14:52;25.10;38.50
1812;DHT22;904;47.814;11.134;2022-10-30T15:17:27;25.00;39.20
1812;DHT22;904;47.814;11.134;2022-10-30T15:20:02;24.80;39.00
1812;DHT22;904;47.814;11.134;2022-10-30T15:22:32;24.80;39.20
1812;DHT22;904;47.814;11.134;2022-10-30T15:25:21;24.60;39.70
1812;DHT22;904;47.814;11.134;2022-10-30T15:27:52;24.50;40.40
1812;DHT22;904;47.814;11.134;2022-10-30T15:30:23;24.30;40.80
1812;DHT22;904;47.814;11.134;2022-10-30T15:32:55;24.20;41.00
1812;DHT22;904;47.814;11.134;2022-10-30T15:35:24;24.00;42.20
1812;DHT22;904;47.814;11.134;2022-10-30T15:37:58;23.80;41.40
1812;DHT22;904;47.814;11.134;2022-10-30T15:40:27;23.70;41.80
1812;DHT22;904;47.814;11.134;2022-10-30T15:42:56;23.60;42.40
1812;DHT22;904;47.814;11.134;2022-10-30T15:45:29;23.40;44.10
1812;DHT22;904;47.814;11.134;2022-10-30T15:48:07;23.20;46.70
1812;DHT22;904;47.814;11.134;2022-10-30T15:50:41;22.90;48.30
1812;DHT22;904;47.814;11.134;2022-10-30T15:53:17;22.70;47.40
1812;DHT22;904;47.814;11.134;2022-10-30T15:55:46;22.70;47.40
1812;DHT22;904;47.814;11.134;2022-10-30T15:58:20;22.60;47.70
1812;DHT22;904;47.814;11.134;2022-10-30T16:00:55;22.50;48.00
1812;DHT22;904;47.814;11.134;2022-10-30T16:03:24;22.40;48.10
1812;DHT22;904;47.814;11.134;2022-10-30T16:06:03;22.30;48.50
1812;DHT22;904;47.814;11.134;2022-10-30T16:08:30;22.10;50.60
1812;DHT22;904;47.814;11.134;2022-10-30T16:10:59;21.90;51.00
1812;DHT22;904;47.814;11.134;2022-10-30T16:13:28;21.70;50.80
1812;DHT22;904;47.814;11.134;2022-10-30T16:15:58;21.50;51.40
1812;DHT22;904;47.814;11.134;2022-10-30T16:18:31;21.30;51.60
1812;DHT22;904;47.814;11.134;2022-10-30T16:21:02;21.20;51.80
1812;DHT22;904;47.814;11.134;2022-10-30T16:23:37;21.10;51.90
1812;DHT22;904;47.814;11.134;2022-10-30T16:26:04;21.00;52.30
1812;DHT22;904;47.814;11.134;2022-10-30T16:28:34;20.90;53.10
1812;DHT22;904;47.814;11.134;2022-10-30T16:31:04;20.90;53.30
1812;DHT22;904;47.814;11.134;2022-10-30T16:33:34;20.80;53.80
1812;DHT22;904;47.814;11.134;2022-10-30T16:36:03;20.50;55.50
1812;DHT22;904;47.814;11.134;2022-10-30T16:38:34;20.40;56.90
1812;DHT22;904;47.814;11.134;2022-10-30T16:41:04;20.10;58.00